Ana Sayfa
METAR-TAF:

METAR-TAF

Havaalanları :

Garner Field

Uvalde, Teksas, Amerika Birleşik Devletleri

Enlem: 29-12-40N, Boylam: 099-44-36W, yükseklik: 287 m

Güncel hava durumu gözlemi

Rapor saat 07:35 UTC de 14 dakika önce yapıldı.
Rüzgar doğu/güneydoğudan 10 kt
Sıcaklık 16°C
Nem 88%
Basınç 1011 hPa
Görüş mesafesi: 16.1 km
1400 ft yükseklikte parçalı çok bulutlu
2000 ft yükseklikte çok bulutlu

METAR: KUVA 280735Z AUTO 11010KT 10SM BKN014 OVC020 16/14 A2986 RMK AO2 LTG DSNT NW T01600142

Saat: 01:49 (07:49 UTC)


TAF: eksik

4.000'den fazla havaalanı için hava durumu gözlemleri ve tahminleri (METAR ve TAF raporları).

Kullanılabilir istasyonlar harita üzerinde sarı ve kırmızı noktalarla gösterilir.

İstasyonun adını görmek için fareyi noktanın üzerinde gezdirin.

Sonrasında hava gözlem ve tahminlerini görmek için tıklayın.

Haritayı değiştirmek için: yaklaştırmak için siyah artı işaretli yeşil düğmeye ve uzaklaştırmak için de eksi işaretli düğmeye hızla tıklayın; bitişik haritalar için yeşil okları kullanın.


METAR-TAF: